createdAt,value
2019-05-11T00:01:41.756Z,25.53
2019-05-11T00:10:28.276Z,27.20
2019-05-11T00:19:06.203Z,21.57
2019-05-11T00:24:54.496Z,22.77
2019-05-11T00:36:20.518Z,19.67
2019-05-11T00:39:00.424Z,19.13
2019-05-11T00:41:43.781Z,19.53
2019-05-11T00:47:14.186Z,18.70
2019-05-11T00:55:47.542Z,19.50
2019-05-11T08:00:52.140Z,14.27
2019-05-11T08:03:21.251Z,13.50
2019-05-11T08:28:57.853Z,16.30
2019-05-11T08:31:27.909Z,15.23
2019-05-11T08:33:58.255Z,15.53
2019-05-11T08:36:28.833Z,16.37
2019-05-11T08:44:51.131Z,15.87
2019-05-11T08:55:42.951Z,17.35
2019-05-11T09:04:13.111Z,15.65
2019-05-11T10:38:24.691Z,16.27
2019-05-11T10:40:53.774Z,16.12
2019-05-11T10:43:22.836Z,16.10
2019-05-11T11:38:23.022Z,14.70
2019-05-11T11:40:52.171Z,15.72
2019-05-11T11:43:21.251Z,16.40
2019-05-11T11:45:50.359Z,16.67
2019-05-11T11:48:19.522Z,16.82
2019-05-11T11:50:48.655Z,15.85
2019-05-11T11:53:18.801Z,16.05
2019-05-11T11:55:48.331Z,15.63
2019-05-11T11:58:22.655Z,15.30
2019-05-11T12:00:48.487Z,15.48
2019-05-11T12:03:18.525Z,16.00
2019-05-11T12:05:47.947Z,16.50
2019-05-11T12:08:18.909Z,16.17
2019-05-11T12:10:49.885Z,15.60
2019-05-11T12:24:53.016Z,16.37
2019-05-11T12:27:22.094Z,16.05
2019-05-11T12:29:51.149Z,17.02
2019-05-11T12:32:27.946Z,16.48
2019-05-11T12:34:58.787Z,15.60
2019-05-11T12:37:28.257Z,15.43
2019-05-11T12:39:58.266Z,16.27
2019-05-11T12:42:28.389Z,16.45
2019-05-11T12:44:57.872Z,15.08
2019-05-11T12:47:28.303Z,14.75
2019-05-11T12:49:58.577Z,15.65
2019-05-11T12:52:28.069Z,15.77
2019-05-11T12:54:58.332Z,17.17
2019-05-11T13:03:08.058Z,16.25
2019-05-11T13:05:39.707Z,18.07
2019-05-11T13:08:08.236Z,18.00
2019-05-11T13:10:37.700Z,15.60
2019-05-11T13:13:08.955Z,16.37
2019-05-11T13:16:11.045Z,14.30
2019-05-11T13:18:35.707Z,14.77
2019-05-11T13:21:04.810Z,14.87
2019-05-11T13:23:33.926Z,13.93
2019-05-11T13:26:03.009Z,13.50
2019-05-11T13:28:37.638Z,14.13
2019-05-11T13:31:08.277Z,15.93
2019-05-11T13:33:40.785Z,14.45
2019-05-11T13:36:09.922Z,12.33
2019-05-11T13:38:39.075Z,14.03
2019-05-11T13:41:11.037Z,13.95
2019-05-11T13:49:33.403Z,13.20
2019-05-11T13:52:04.119Z,13.20
2019-05-11T13:54:33.277Z,13.90
2019-05-11T13:57:02.402Z,14.60
2019-05-11T13:59:31.536Z,14.40
2019-05-11T14:02:00.670Z,15.13
2019-05-11T14:04:29.746Z,13.65
2019-05-11T14:07:00.769Z,13.20
2019-05-11T14:09:31.311Z,13.20
2019-05-11T14:12:00.393Z,14.20
2019-05-11T14:14:31.774Z,14.83
2019-05-11T14:17:01.152Z,15.10
2019-05-11T14:19:30.239Z,14.00
2019-05-11T14:21:59.615Z,14.03
2019-05-11T14:24:30.632Z,15.03
2019-05-11T14:26:59.642Z,14.43
2019-05-11T14:29:28.833Z,14.43
2019-05-11T14:31:59.338Z,13.35
2019-05-11T14:34:28.557Z,13.65
2019-05-11T14:36:58.241Z,13.72
2019-05-11T14:39:28.843Z,13.62
2019-05-11T14:42:02.805Z,13.00
2019-05-11T14:44:28.855Z,12.68
2019-05-11T14:46:59.277Z,13.10
2019-05-11T14:49:30.210Z,14.70
2019-05-11T14:52:01.026Z,13.35
2019-05-11T14:54:30.127Z,12.80
2019-05-11T14:56:59.289Z,12.10
2019-05-11T15:02:37.795Z,12.60
2019-05-11T15:05:08.882Z,12.60
2019-05-11T15:24:30.408Z,11.97
2019-05-11T15:35:48.410Z,11.28
2019-05-11T16:14:38.343Z,12.10
2019-05-11T17:17:49.098Z,11.00
2019-05-11T17:31:08.073Z,10.43
2019-05-11T17:54:39.380Z,11.40
2019-05-11T18:12:19.359Z,12.35
2019-05-11T18:26:54.592Z,13.70
2019-05-11T18:29:38.042Z,11.03
2019-05-11T18:32:08.750Z,13.03
2019-05-11T18:34:37.981Z,10.90
2019-05-11T18:37:08.787Z,13.58
2019-05-11T18:39:38.041Z,12.80
2019-05-11T18:42:08.295Z,12.00
2019-05-11T18:44:38.010Z,13.07
2019-05-11T18:47:08.806Z,12.57
2019-05-11T18:49:39.503Z,13.23
2019-05-11T18:52:08.711Z,12.23
2019-05-11T18:54:39.537Z,11.55
2019-05-11T18:57:08.792Z,9.27
2019-05-11T18:59:37.982Z,11.70
2019-05-11T19:02:08.412Z,10.57
2019-05-11T19:04:38.143Z,9.23
2019-05-11T19:07:16.703Z,8.90
2019-05-11T19:09:38.094Z,11.13
2019-05-11T19:12:08.527Z,10.57
2019-05-11T19:14:38.585Z,10.63
2019-05-11T19:31:11.165Z,8.87
2019-05-11T19:46:04.023Z,10.30
2019-05-11T19:51:35.345Z,7.33
2019-05-11T20:06:01.719Z,8.40
2019-05-11T20:14:48.565Z,9.20
2019-05-11T20:17:10.269Z,10.43
2019-05-11T20:30:49.856Z,9.77
2019-05-11T20:44:21.024Z,11.53
2019-05-11T20:49:33.071Z,10.57
2019-05-11T20:52:02.163Z,10.43
2019-05-11T20:57:13.761Z,9.73
2019-05-11T20:59:42.836Z,9.40
2019-05-11T21:07:44.770Z,8.80
2019-05-11T21:10:14.087Z,8.23
2019-05-11T21:15:39.843Z,7.07
2019-05-11T21:18:08.936Z,8.00
2019-05-11T21:20:38.293Z,8.83
2019-05-11T21:31:43.638Z,7.60
2019-05-11T21:34:12.698Z,7.30
2019-05-11T21:36:41.853Z,7.57
2019-05-11T21:39:11.430Z,7.03
2019-05-11T21:41:40.600Z,7.10
2019-05-11T21:44:20.142Z,7.10
2019-05-11T21:46:49.226Z,7.13
2019-05-11T21:49:18.556Z,7.03
2019-05-11T21:51:52.308Z,7.43
2019-05-11T21:57:01.803Z,6.23
2019-05-11T21:59:30.927Z,6.93
2019-05-11T22:02:00.080Z,6.97
2019-05-11T22:09:44.174Z,8.07
2019-05-11T22:12:13.267Z,8.30
2019-05-11T22:14:42.514Z,8.73
2019-05-11T22:17:11.580Z,8.87
2019-05-11T22:19:40.739Z,8.47
2019-05-11T22:22:21.514Z,9.93
2019-05-11T22:24:40.618Z,9.33
2019-05-11T22:27:09.715Z,9.45
2019-05-11T22:29:38.834Z,10.03
2019-05-11T22:32:07.899Z,10.07
2019-05-11T22:34:37.858Z,10.77
2019-05-11T22:37:08.605Z,10.53
2019-05-11T22:42:20.391Z,10.13
2019-05-11T22:44:49.900Z,10.50
2019-05-11T22:47:18.996Z,11.33
2019-05-11T22:49:49.812Z,11.00
2019-05-11T22:52:32.659Z,10.53
2019-05-11T22:54:49.695Z,10.15
2019-05-11T22:57:18.880Z,10.53
2019-05-11T22:59:48.059Z,9.87
2019-05-11T23:02:19.044Z,10.70
2019-05-11T23:04:48.483Z,11.20
2019-05-11T23:07:18.518Z,11.30
2019-05-11T23:09:47.727Z,10.87
2019-05-11T23:12:17.990Z,11.57
2019-05-11T23:14:49.094Z,11.20
2019-05-11T23:17:18.397Z,11.87
2019-05-11T23:19:48.696Z,10.95
2019-05-11T23:22:18.336Z,12.43
2019-05-11T23:24:48.072Z,13.47
2019-05-11T23:27:18.118Z,13.80
2019-05-11T23:29:47.736Z,13.40
2019-05-11T23:32:17.976Z,12.97
2019-05-11T23:34:48.175Z,13.45
2019-05-11T23:37:18.383Z,14.00
2019-05-11T23:39:47.986Z,14.97
2019-05-11T23:42:17.090Z,13.30
2019-05-11T23:44:48.292Z,15.07
2019-05-11T23:47:20.004Z,15.37
2019-05-11T23:49:47.984Z,16.30
2019-05-11T23:52:18.074Z,15.53
2019-05-11T23:54:48.450Z,15.07
2019-05-11T23:57:18.584Z,15.98
2019-05-11T23:59:47.828Z,15.97
